createdAt,value
2022-08-21T00:00:29.655Z,101724.25
2022-08-21T00:03:07.025Z,101713.72
2022-08-21T00:05:40.227Z,101712.00
2022-08-21T00:08:07.709Z,101709.38
2022-08-21T00:10:35.260Z,101699.88
2022-08-21T00:13:05.888Z,101707.72
2022-08-21T00:15:36.118Z,101696.41
2022-08-21T00:18:04.818Z,101705.22
2022-08-21T00:20:33.197Z,101675.91
2022-08-21T00:23:00.533Z,101710.72
2022-08-21T00:25:28.430Z,101708.09
2022-08-21T00:27:56.527Z,101703.88
2022-08-21T00:30:27.025Z,101703.00
2022-08-21T00:32:56.659Z,101704.66
2022-08-21T00:35:37.942Z,101705.59
2022-08-21T00:38:09.295Z,101705.59
2022-08-21T00:40:45.977Z,101690.94
2022-08-21T00:43:19.266Z,101704.19
2022-08-21T00:45:47.110Z,101707.56
2022-08-21T00:48:14.332Z,101704.25
2022-08-21T00:50:50.875Z,101695.47
2022-08-21T00:53:18.625Z,101684.22
2022-08-21T00:55:47.494Z,101701.59
2022-08-21T00:58:17.324Z,101701.59
2022-08-21T01:00:49.155Z,101691.34
2022-08-21T01:03:23.873Z,101695.56
2022-08-21T01:05:53.097Z,101690.41
2022-08-21T01:08:21.841Z,101690.53
2022-08-21T01:10:49.356Z,101688.84
2022-08-21T01:13:25.409Z,101685.31
2022-08-21T01:15:57.317Z,101699.31
2022-08-21T01:18:25.254Z,101694.97
2022-08-21T01:21:23.320Z,101706.53
2022-08-21T01:23:57.974Z,101709.31
2022-08-21T01:26:33.935Z,101698.94
2022-08-21T01:29:31.545Z,101698.81
2022-08-21T01:32:04.194Z,101695.31
2022-08-21T01:34:31.591Z,101691.28
2022-08-21T01:36:58.588Z,101698.06
2022-08-21T01:39:25.581Z,101696.34
2022-08-21T01:41:52.592Z,101662.81
2022-08-21T01:44:23.567Z,101690.47
2022-08-21T01:46:53.141Z,101715.00
2022-08-21T01:49:20.965Z,101686.41
2022-08-21T01:51:48.491Z,101713.34
2022-08-21T01:54:15.542Z,101683.19
2022-08-21T01:56:50.747Z,101714.41
2022-08-21T01:59:17.984Z,101707.47
2022-08-21T02:01:44.948Z,101711.06
2022-08-21T02:04:12.320Z,101711.06
2022-08-21T02:06:40.424Z,101714.66
2022-08-21T02:09:10.772Z,101708.53
2022-08-21T02:11:41.376Z,101709.44
2022-08-21T02:14:15.283Z,101706.22
2022-08-21T02:17:09.592Z,101702.66
2022-08-21T02:19:40.822Z,101715.06
2022-08-21T02:22:11.003Z,101709.84
2022-08-21T02:24:55.082Z,101720.53
2022-08-21T02:27:27.389Z,101706.41
2022-08-21T02:29:58.263Z,101718.69
2022-08-21T02:32:26.790Z,101706.56
2022-08-21T02:34:54.536Z,101692.72
2022-08-21T02:37:21.849Z,101698.69
2022-08-21T02:39:49.064Z,101690.97
2022-08-21T02:42:16.909Z,101702.97
2022-08-21T02:44:43.925Z,101686.44
2022-08-21T02:47:10.890Z,101704.94
2022-08-21T02:49:38.059Z,101718.06
2022-08-21T02:52:06.711Z,101685.72
2022-08-21T02:54:33.792Z,101708.41
2022-08-21T02:57:00.758Z,101698.88
2022-08-21T02:59:27.795Z,101695.38
2022-08-21T03:01:56.454Z,101696.41
2022-08-21T03:04:23.829Z,101708.66
2022-08-21T03:06:50.845Z,101694.66
2022-08-21T03:09:17.844Z,101702.53
2022-08-21T03:11:45.209Z,101686.06
2022-08-21T03:14:12.170Z,101694.66
2022-08-21T03:16:39.148Z,101691.19
2022-08-21T03:19:06.134Z,101685.25
2022-08-21T03:21:33.086Z,101704.53
2022-08-21T03:24:00.113Z,101702.06
2022-08-21T03:26:31.865Z,101698.59
2022-08-21T03:28:59.699Z,101684.84
2022-08-21T03:31:31.714Z,101700.56
2022-08-21T03:33:59.270Z,101710.34
2022-08-21T03:36:26.577Z,101714.63
2022-08-21T03:38:54.505Z,101705.19
2022-08-21T03:41:21.827Z,101709.81
2022-08-21T03:43:49.012Z,101710.50
2022-08-21T03:46:16.093Z,101723.72
2022-08-21T03:48:43.304Z,101716.97
2022-08-21T03:51:10.316Z,101701.25
2022-08-21T03:53:37.811Z,101723.09
2022-08-21T03:56:06.911Z,101715.34
2022-08-21T03:58:34.031Z,101728.41
2022-08-21T04:01:03.234Z,101729.44
2022-08-21T04:03:30.447Z,101708.63
2022-08-21T04:05:57.691Z,101727.88
2022-08-21T04:08:25.025Z,101730.41
2022-08-21T04:10:57.600Z,101736.47
2022-08-21T04:13:24.848Z,101736.47
2022-08-21T04:15:52.130Z,101741.78
2022-08-21T04:18:19.525Z,101737.34
2022-08-21T04:20:50.820Z,101734.97
2022-08-21T04:23:24.578Z,101737.44
2022-08-21T04:25:54.174Z,101742.59
2022-08-21T04:28:23.873Z,101738.16
2022-08-21T04:30:57.103Z,101740.81
2022-08-21T04:33:25.094Z,101684.50
2022-08-21T04:35:52.593Z,101736.38
2022-08-21T04:38:20.475Z,101738.94
2022-08-21T04:40:49.530Z,101738.03
2022-08-21T04:43:17.163Z,101743.19
2022-08-21T04:45:48.801Z,101737.88
2022-08-21T04:48:21.105Z,101748.25
2022-08-21T04:51:07.284Z,101748.19
2022-08-21T04:53:49.273Z,101741.34
2022-08-21T04:56:32.856Z,101753.34
2022-08-21T04:59:05.431Z,101719.44
2022-08-21T05:01:38.516Z,101740.94
2022-08-21T05:04:08.842Z,101756.47
2022-08-21T05:06:42.052Z,101737.94
2022-08-21T05:09:10.791Z,101755.41
2022-08-21T05:11:38.176Z,101743.81
2022-08-21T05:14:05.443Z,101742.84
2022-08-21T05:16:37.827Z,101731.41
2022-08-21T05:19:08.951Z,101747.84
2022-08-21T05:21:40.002Z,101744.94
2022-08-21T05:24:07.674Z,101757.03
2022-08-21T05:26:46.135Z,101744.81
2022-08-21T05:29:16.772Z,101757.81
2022-08-21T05:31:46.233Z,101735.91
2022-08-21T05:34:17.099Z,101751.50
2022-08-21T05:36:44.796Z,101749.78
2022-08-21T05:39:13.546Z,101744.66
2022-08-21T05:41:41.493Z,101759.47
2022-08-21T05:44:10.369Z,101746.56
2022-08-21T05:46:39.158Z,101762.88
2022-08-21T05:49:06.565Z,101763.69
2022-08-21T05:51:33.665Z,101753.25
2022-08-21T05:54:00.674Z,101757.38
2022-08-21T05:56:27.691Z,101763.50
2022-08-21T05:58:56.500Z,101758.03
2022-08-21T06:01:23.650Z,101725.34
2022-08-21T06:03:50.677Z,101757.94
2022-08-21T06:06:18.413Z,101752.72
2022-08-21T06:08:46.533Z,101754.22
2022-08-21T06:11:13.614Z,101731.50
2022-08-21T06:13:40.685Z,101759.84
2022-08-21T06:16:16.403Z,101746.66
2022-08-21T06:18:45.666Z,101757.78
2022-08-21T06:21:14.393Z,101766.84
2022-08-21T06:23:43.061Z,101761.19
2022-08-21T06:26:13.079Z,101755.50
2022-08-21T06:28:42.531Z,101744.72
2022-08-21T06:31:21.470Z,101758.09
2022-08-21T06:33:48.849Z,101757.63
2022-08-21T06:36:16.427Z,101738.13
2022-08-21T06:38:51.073Z,101735.19
2022-08-21T06:41:23.868Z,101751.91
2022-08-21T06:43:51.558Z,101746.28
2022-08-21T06:46:18.527Z,101750.34
2022-08-21T06:48:45.512Z,101735.16
2022-08-21T06:51:12.912Z,101758.31
2022-08-21T06:53:39.920Z,101746.09
2022-08-21T06:56:07.053Z,101756.03
2022-08-21T06:58:34.472Z,101752.94
2022-08-21T07:01:02.255Z,101751.06
2022-08-21T07:03:40.977Z,101754.16
2022-08-21T07:06:11.860Z,101753.94
2022-08-21T07:08:40.245Z,101751.94
2022-08-21T07:11:23.587Z,101748.25
2022-08-21T07:13:53.719Z,101751.78
2022-08-21T07:16:22.528Z,101744.94
2022-08-21T07:18:50.339Z,101750.06
2022-08-21T07:21:17.733Z,101746.53
2022-08-21T07:23:51.780Z,101742.94
2022-08-21T07:26:24.329Z,101748.94
2022-08-21T07:28:51.934Z,101734.06
2022-08-21T07:31:22.357Z,101739.94
2022-08-21T07:33:49.825Z,101731.16
2022-08-21T07:36:17.215Z,101734.25
2022-08-21T07:38:44.445Z,101727.09
2022-08-21T07:41:22.707Z,101734.66
2022-08-21T07:43:49.948Z,101728.69
2022-08-21T07:46:20.518Z,101731.00
2022-08-21T07:48:47.761Z,101714.84
2022-08-21T07:51:17.701Z,101701.53
2022-08-21T07:53:52.491Z,101727.50
2022-08-21T07:56:20.610Z,101728.34
2022-08-21T07:58:48.084Z,101730.09
2022-08-21T08:01:16.077Z,101706.16
2022-08-21T08:03:43.370Z,101723.81
2022-08-21T08:06:13.343Z,101725.72
2022-08-21T08:08:43.465Z,101727.91
2022-08-21T08:11:12.484Z,101727.72
2022-08-21T08:13:48.628Z,101735.84
2022-08-21T08:16:17.469Z,101727.91
2022-08-21T08:18:46.001Z,101726.19
2022-08-21T08:21:14.370Z,101730.25
2022-08-21T08:23:41.636Z,101721.09
2022-08-21T08:26:08.646Z,101721.63
2022-08-21T08:28:35.745Z,101726.72
2022-08-21T08:31:04.143Z,101728.31
2022-08-21T08:33:31.424Z,101705.47
2022-08-21T08:36:00.506Z,101726.00
2022-08-21T08:38:30.500Z,101711.19
2022-08-21T08:41:23.696Z,101726.78
2022-08-21T08:43:58.451Z,101722.88
2022-08-21T08:46:42.032Z,101715.09
2022-08-21T08:49:23.529Z,101717.53
2022-08-21T08:52:02.194Z,101709.59
2022-08-21T08:54:50.155Z,101711.53
2022-08-21T08:57:21.951Z,101711.69
2022-08-21T08:59:57.106Z,101699.63
2022-08-21T09:02:24.956Z,101719.06
2022-08-21T09:04:55.097Z,101712.19
2022-08-21T09:07:40.125Z,101704.50
2022-08-21T09:10:30.033Z,101701.44
2022-08-21T09:13:11.801Z,101702.78
2022-08-21T09:16:23.030Z,101705.66
2022-08-21T09:19:25.074Z,101710.59
2022-08-21T09:22:21.128Z,101705.66
2022-08-21T09:25:08.835Z,101706.13
2022-08-21T09:27:37.521Z,101712.75
2022-08-21T09:30:08.280Z,101710.88
2022-08-21T09:32:38.523Z,101708.13
2022-08-21T09:35:15.382Z,101705.97
2022-08-21T09:38:00.425Z,101695.66
2022-08-21T09:40:45.675Z,101687.06
2022-08-21T09:43:12.719Z,101702.53
2022-08-21T09:45:43.001Z,101683.88
2022-08-21T09:48:26.839Z,101697.97
2022-08-21T09:51:09.694Z,101693.38
2022-08-21T09:53:45.500Z,101690.19
2022-08-21T09:56:46.755Z,101650.34
2022-08-21T09:59:37.165Z,101695.22
2022-08-21T10:02:30.561Z,101706.19
2022-08-21T10:05:24.216Z,101691.41
2022-08-21T10:07:52.426Z,101695.44
2022-08-21T10:10:27.032Z,101698.34
2022-08-21T10:13:19.543Z,101701.97
2022-08-21T10:16:19.482Z,101695.28
2022-08-21T10:19:10.132Z,101700.41
2022-08-21T10:22:18.827Z,101650.72
2022-08-21T10:24:57.767Z,101693.13
2022-08-21T10:28:10.146Z,101682.41
2022-08-21T10:30:52.276Z,101676.56
2022-08-21T10:33:37.914Z,101690.09
2022-08-21T10:36:22.456Z,101681.06
2022-08-21T10:39:35.427Z,101678.28
2022-08-21T10:42:12.769Z,101677.25
2022-08-21T10:45:16.296Z,101678.69
2022-08-21T10:47:52.947Z,101670.69
2022-08-21T10:50:41.197Z,101676.56
2022-08-21T10:53:26.604Z,101675.56
2022-08-21T10:56:00.436Z,101671.19
2022-08-21T10:59:21.796Z,101674.81
2022-08-21T11:02:19.666Z,101677.88
2022-08-21T11:05:02.570Z,101684.38
2022-08-21T11:07:47.195Z,101672.63
2022-08-21T11:10:32.492Z,101679.31
2022-08-21T11:13:12.381Z,101677.81
2022-08-21T11:16:01.549Z,101677.09
2022-08-21T11:19:16.705Z,101668.94
2022-08-21T11:22:11.043Z,101668.00
2022-08-21T11:25:08.182Z,101668.59
2022-08-21T11:28:01.315Z,101660.66
2022-08-21T11:31:03.549Z,101663.25
2022-08-21T11:34:07.990Z,101667.81
2022-08-21T11:37:16.240Z,101672.81
2022-08-21T11:40:07.565Z,101657.59
2022-08-21T11:42:48.256Z,101663.28
2022-08-21T11:45:21.624Z,101659.66
2022-08-21T11:48:08.236Z,101665.19
2022-08-21T11:50:40.873Z,101653.09
2022-08-21T11:53:26.759Z,101651.06
2022-08-21T11:56:01.335Z,101638.75
2022-08-21T11:58:40.889Z,101635.88
2022-08-21T12:01:20.700Z,101643.34
2022-08-21T12:04:04.833Z,101643.34
2022-08-21T12:06:38.263Z,101649.31
2022-08-21T12:09:09.972Z,101645.47
2022-08-21T12:12:06.202Z,101653.88
2022-08-21T12:14:51.776Z,101655.22
2022-08-21T12:17:27.656Z,101647.75
2022-08-21T12:20:26.353Z,101641.63
2022-08-21T12:23:13.071Z,101610.69
2022-08-21T12:26:14.381Z,101641.84
2022-08-21T12:28:42.161Z,101648.94
2022-08-21T12:31:29.021Z,101659.75
2022-08-21T12:34:10.874Z,101650.06
2022-08-21T12:36:57.646Z,101647.38
2022-08-21T12:39:30.022Z,101651.38
2022-08-21T12:42:07.292Z,101652.03
2022-08-21T12:44:52.612Z,101651.09
2022-08-21T12:47:46.775Z,101647.06
2022-08-21T12:50:22.886Z,101647.44
2022-08-21T12:53:18.633Z,101638.38
2022-08-21T12:55:48.556Z,101635.31
2022-08-21T12:58:25.226Z,101636.81
2022-08-21T13:01:07.153Z,101640.44
2022-08-21T13:03:38.315Z,101641.31
2022-08-21T13:06:07.656Z,101638.94
2022-08-21T13:08:40.930Z,101625.34
2022-08-21T13:11:14.868Z,101630.69
2022-08-21T13:13:47.031Z,101629.75
2022-08-21T13:16:28.340Z,101627.06
2022-08-21T13:19:07.885Z,101627.25
2022-08-21T13:21:44.875Z,101621.88
2022-08-21T13:24:41.218Z,101620.16
2022-08-21T13:27:28.974Z,101619.44
2022-08-21T13:30:21.624Z,101609.16
2022-08-21T13:32:56.542Z,101617.69
2022-08-21T13:35:37.488Z,101613.47
2022-08-21T13:38:09.087Z,101589.72
2022-08-21T13:40:57.919Z,101615.00
2022-08-21T13:43:35.014Z,101612.72
2022-08-21T13:46:10.730Z,101613.84
2022-08-21T13:48:43.352Z,101613.28
2022-08-21T13:51:11.534Z,101616.69
2022-08-21T13:53:55.773Z,101616.69
2022-08-21T13:56:44.981Z,101607.06
2022-08-21T13:59:12.575Z,101607.34
2022-08-21T14:02:22.493Z,101608.88
2022-08-21T14:05:02.412Z,101594.34
2022-08-21T14:07:42.156Z,101601.22
2022-08-21T14:10:23.418Z,101604.66
2022-08-21T14:12:57.890Z,101592.63
2022-08-21T14:15:31.390Z,101596.25
2022-08-21T14:18:18.518Z,101612.31
2022-08-21T14:20:46.732Z,101601.91
2022-08-21T14:23:28.324Z,101596.81
2022-08-21T14:26:03.115Z,101596.81
2022-08-21T14:28:40.830Z,101602.00
2022-08-21T14:31:18.288Z,101594.91
2022-08-21T14:33:46.974Z,101605.25
2022-08-21T14:36:14.385Z,101600.66
2022-08-21T14:38:41.962Z,101600.66
2022-08-21T14:41:19.867Z,101605.25
2022-08-21T14:43:48.109Z,101601.78
2022-08-21T14:46:32.998Z,101605.91
2022-08-21T14:49:00.159Z,101597.97
2022-08-21T14:51:27.348Z,101601.50
2022-08-21T14:53:54.509Z,101591.47
2022-08-21T14:56:22.190Z,101581.63
2022-08-21T14:58:52.695Z,101595.38
2022-08-21T15:01:23.095Z,101603.50
2022-08-21T15:03:50.767Z,101587.75
2022-08-21T15:06:22.474Z,101598.16
2022-08-21T15:08:52.659Z,101599.09
2022-08-21T15:11:41.702Z,101600.09
2022-08-21T15:14:24.606Z,101591.28
2022-08-21T15:16:52.967Z,101590.25
2022-08-21T15:19:20.799Z,101582.06
2022-08-21T15:21:47.940Z,101590.03
2022-08-21T15:24:15.511Z,101583.91
2022-08-21T15:26:44.762Z,101592.06
2022-08-21T15:29:11.978Z,101585.34
2022-08-21T15:32:02.128Z,101598.56
2022-08-21T15:34:31.597Z,101588.22
2022-08-21T15:36:59.448Z,101609.28
2022-08-21T15:39:31.180Z,101601.41
2022-08-21T15:42:06.181Z,101602.00
2022-08-21T15:44:43.469Z,101602.19
2022-08-21T15:47:19.237Z,101600.38
2022-08-21T15:49:47.036Z,101610.41
2022-08-21T15:52:18.118Z,101601.59
2022-08-21T15:54:45.358Z,101604.47
2022-08-21T15:57:18.023Z,101610.03
2022-08-21T15:59:49.213Z,101601.50
2022-08-21T16:02:23.804Z,101556.09
2022-08-21T16:04:51.013Z,101605.72
2022-08-21T16:07:18.111Z,101608.88
2022-08-21T16:09:45.381Z,101610.59
2022-08-21T16:12:24.847Z,101583.03
2022-08-21T16:14:57.108Z,101616.72
2022-08-21T16:17:35.843Z,101612.31
2022-08-21T16:20:09.198Z,101617.28
2022-08-21T16:22:43.951Z,101613.47
2022-08-21T16:25:13.925Z,101608.03
2022-08-21T16:27:45.475Z,101611.00
2022-08-21T16:30:15.709Z,101599.41
2022-08-21T16:32:44.831Z,101606.88
2022-08-21T16:35:16.144Z,101604.88
2022-08-21T16:37:43.604Z,101613.66
2022-08-21T16:40:11.504Z,101608.50
2022-08-21T16:42:42.639Z,101597.78
2022-08-21T16:45:18.698Z,101601.25
2022-08-21T16:47:46.026Z,101610.72
2022-08-21T16:50:22.368Z,101617.97
2022-08-21T16:52:50.537Z,101611.59
2022-08-21T16:55:17.753Z,101618.59
2022-08-21T16:57:45.221Z,101607.97
2022-08-21T17:00:13.858Z,101617.63
2022-08-21T17:02:53.431Z,101617.63
2022-08-21T17:05:20.973Z,101611.41
2022-08-21T17:07:48.109Z,101600.09
2022-08-21T17:10:19.081Z,101607.09
2022-08-21T17:12:56.552Z,101607.56
2022-08-21T17:15:33.976Z,101615.19
2022-08-21T17:18:02.577Z,101604.94
2022-08-21T17:20:30.395Z,101608.72
2022-08-21T17:22:57.868Z,101610.88
2022-08-21T17:25:26.413Z,101604.50
2022-08-21T17:27:54.517Z,101609.84
2022-08-21T17:30:22.446Z,101597.78
2022-08-21T17:32:54.484Z,101603.16
2022-08-21T17:35:22.231Z,101606.47
2022-08-21T17:37:50.815Z,101616.63
2022-08-21T17:40:22.026Z,101610.41
2022-08-21T17:42:50.217Z,101613.34
2022-08-21T17:45:19.922Z,101617.97
2022-08-21T17:47:47.439Z,101616.44
2022-08-21T17:50:16.842Z,101604.56
2022-08-21T17:52:50.000Z,101624.84
2022-08-21T17:55:17.725Z,101611.91
2022-08-21T17:57:47.404Z,101627.00
2022-08-21T18:00:17.114Z,101630.84
2022-08-21T18:02:47.131Z,101629.44
2022-08-21T18:05:14.678Z,101639.75
2022-08-21T18:07:42.187Z,101654.16
2022-08-21T18:10:12.230Z,101651.00
2022-08-21T18:12:45.339Z,101646.19
2022-08-21T18:15:16.912Z,101646.34
2022-08-21T18:17:47.776Z,101652.84
2022-08-21T18:20:18.867Z,101646.31
2022-08-21T18:22:46.866Z,101641.22
2022-08-21T18:25:14.568Z,101645.69
2022-08-21T18:27:45.772Z,101646.91
2022-08-21T18:30:18.364Z,101647.00
2022-08-21T18:32:46.628Z,101651.06
2022-08-21T18:35:16.760Z,101647.66
2022-08-21T18:37:44.784Z,101649.91
2022-08-21T18:40:13.448Z,101667.75
2022-08-21T18:42:54.970Z,101641.91
2022-08-21T18:45:22.501Z,101665.69
2022-08-21T18:47:56.028Z,101655.50
2022-08-21T18:50:27.955Z,101671.53
2022-08-21T18:52:56.792Z,101675.44
2022-08-21T18:55:25.262Z,101678.41
2022-08-21T18:57:56.486Z,101644.97
2022-08-21T19:00:33.806Z,101681.84
2022-08-21T19:03:01.671Z,101664.91
2022-08-21T19:05:34.965Z,101683.03
2022-08-21T19:08:04.345Z,101672.75
2022-08-21T19:10:31.504Z,101685.97
2022-08-21T19:13:00.659Z,101680.94
2022-08-21T19:15:28.633Z,101685.50
2022-08-21T19:17:58.598Z,101691.06
2022-08-21T19:20:36.462Z,101684.41
2022-08-21T19:23:09.429Z,101689.88
2022-08-21T19:25:39.981Z,101666.81
2022-08-21T19:28:15.177Z,101693.03
2022-08-21T19:30:56.338Z,101690.84
2022-08-21T19:33:33.703Z,101698.06
2022-08-21T19:36:00.991Z,101696.66
2022-08-21T19:38:28.293Z,101700.25
2022-08-21T19:40:56.415Z,101703.13
2022-08-21T19:43:24.757Z,101701.53
2022-08-21T19:45:57.046Z,101704.34
2022-08-21T19:48:26.064Z,101706.00
2022-08-21T19:50:53.595Z,101707.88
2022-08-21T19:53:21.122Z,101698.53
2022-08-21T19:55:48.588Z,101706.47
2022-08-21T19:58:36.934Z,101720.53
2022-08-21T20:01:11.362Z,101713.53
2022-08-21T20:06:34.730Z,101711.31
2022-08-21T20:09:03.669Z,101714.84
2022-08-21T20:11:50.484Z,101721.06
2022-08-21T20:14:26.605Z,101723.06
2022-08-21T20:17:08.225Z,101725.28
2022-08-21T20:19:41.987Z,101728.69
2022-08-21T20:22:10.380Z,101732.44
2022-08-21T20:24:38.046Z,101738.78
2022-08-21T20:27:06.323Z,101735.34
2022-08-21T20:29:39.169Z,101718.06
2022-08-21T20:32:12.032Z,101739.09
2022-08-21T20:34:41.613Z,101712.31
2022-08-21T20:37:12.697Z,101739.31
2022-08-21T20:39:41.069Z,101734.25
2022-08-21T20:42:10.541Z,101717.03
2022-08-21T20:44:38.333Z,101743.19
2022-08-21T20:47:14.995Z,101732.09
2022-08-21T20:49:51.577Z,101747.03
2022-08-21T20:52:20.379Z,101742.84
2022-08-21T20:54:57.516Z,101742.94
2022-08-21T20:58:00.192Z,101746.38
2022-08-21T21:00:31.672Z,101747.31
2022-08-21T21:06:19.391Z,101738.88
2022-08-21T21:09:19.137Z,101745.88
2022-08-21T21:11:55.786Z,101739.25
2022-08-21T21:14:55.400Z,101748.91
2022-08-21T21:17:41.665Z,101737.81
2022-08-21T21:20:45.867Z,101759.00
2022-08-21T21:23:25.928Z,101758.25
2022-08-21T21:26:07.783Z,101739.16
2022-08-21T21:28:46.124Z,101757.53
2022-08-21T21:31:14.064Z,101763.88
2022-08-21T21:33:41.258Z,101755.19
2022-08-21T21:36:37.516Z,101745.50
2022-08-21T21:39:18.184Z,101758.69
2022-08-21T21:42:11.270Z,101749.28
2022-08-21T21:45:05.396Z,101764.88
2022-08-21T21:48:23.085Z,101772.97
2022-08-21T21:51:01.545Z,101773.03
2022-08-21T21:53:54.383Z,101773.03
2022-08-21T21:56:55.091Z,101782.81
2022-08-21T21:59:55.315Z,101778.41
2022-08-21T22:03:16.810Z,101769.66
2022-08-21T22:05:57.572Z,101766.31
2022-08-21T22:08:48.802Z,101765.81
2022-08-21T22:14:22.618Z,101790.53
2022-08-21T22:16:51.304Z,101770.47
2022-08-21T22:19:38.501Z,101786.19
2022-08-21T22:22:14.504Z,101790.72
2022-08-21T22:24:49.263Z,101787.25
2022-08-21T22:27:35.410Z,101786.38
2022-08-21T22:30:09.546Z,101791.69
2022-08-21T22:32:46.399Z,101756.97
2022-08-21T22:35:32.538Z,101785.78
2022-08-21T22:38:34.752Z,101791.00
2022-08-21T22:41:17.718Z,101793.72
2022-08-21T22:43:54.338Z,101791.19
2022-08-21T22:46:55.510Z,101780.00
2022-08-21T22:49:48.681Z,101786.94
2022-08-21T22:52:26.749Z,101791.38
2022-08-21T22:55:00.021Z,101773.34
2022-08-21T22:57:32.269Z,101789.78
2022-08-21T23:00:14.445Z,101789.91
2022-08-21T23:02:48.450Z,101795.16
2022-08-21T23:05:31.816Z,101796.97
2022-08-21T23:08:24.928Z,101795.31
2022-08-21T23:11:23.398Z,101795.38
2022-08-21T23:13:53.174Z,101793.66
2022-08-21T23:16:53.246Z,101791.91
2022-08-21T23:19:34.392Z,101795.56
2022-08-21T23:22:29.325Z,101800.09
2022-08-21T23:25:12.681Z,101792.19
2022-08-21T23:28:27.696Z,101786.06
2022-08-21T23:31:13.201Z,101788.84
2022-08-21T23:40:51.407Z,101788.84
2022-08-21T23:43:51.190Z,101785.31
2022-08-21T23:47:12.946Z,101773.78
2022-08-21T23:50:00.769Z,101788.97
2022-08-21T23:52:57.013Z,101783.63
2022-08-21T23:56:20.627Z,101784.50
2022-08-21T23:59:07.283Z,101782.72
